Time;durP1;ratioP1;P1;durP2;ratioP2;P2;SDS_P1;SDS_P2;PMS_P1;PMS_P2;Temp;Humidity;BMP_temperature;BMP_pressure;BME280_temperature;BME280_humidity;BME280_pressure;Samples;Min_cycle;Max_cycle;Signal;HPM_P1;HPM_P2
2022/10/08 06:20:40;;;;;;;;;0.00;0.00;;;;;;;;5451859;22;45897;-94
2022/10/08 06:23:06;;;;;;;;;0.00;0.00;;;;;;;;4999330;28;45748;-92
2022/10/08 06:25:34;;;;;;;;;0.00;0.00;;;;;;;;4999089;28;45309;-90
2022/10/08 06:27:59;;;;;;;;;0.00;0.00;;;;;;;;5016630;28;45442;-93
2022/10/08 06:30:24;;;;;;;;;0.00;0.00;;;;;;;;4990076;28;45997;-92
2022/10/08 06:32:50;;;;;;;;;0.00;0.00;;;;;;;;4998532;28;45521;-93
2022/10/08 06:35:15;;;;;;;;;0.00;0.00;;;;;;;;5010845;28;45558;-94
2022/10/08 06:37:40;;;;;;;;;0.00;0.00;;;;;;;;5015017;28;47500;-90
2022/10/08 06:40:05;;;;;;;;;0.00;0.00;;;;;;;;5013889;28;46150;-95
2022/10/08 06:42:31;;;;;;;;;0.00;0.00;;;;;;;;5022473;28;45248;-95
2022/10/08 06:44:56;;;;;;;;;0.00;0.00;;;;;;;;5010434;28;45488;-95
2022/10/08 06:47:22;;;;;;;;;0.00;0.00;;;;;;;;5008396;28;47586;-95
2022/10/08 06:49:48;;;;;;;;;0.00;0.00;;;;;;;;5009023;28;45257;-89
2022/10/08 06:52:13;;;;;;;;;0.00;0.00;;;;;;;;5003371;28;45431;-95
2022/10/08 06:54:42;;;;;;;;;0.00;0.00;;;;;;;;5013532;28;45465;-94
2022/10/08 06:57:07;;;;;;;;;0.00;0.00;;;;;;;;5002625;28;47054;-90
2022/10/08 06:59:32;;;;;;;;;0.00;0.00;;;;;;;;5016375;28;45494;-95
2022/10/08 07:01:58;;;;;;;;;0.00;0.00;;;;;;;;4999392;28;45249;-94
2022/10/08 07:04:23;;;;;;;;;0.00;0.00;;;;;;;;5013779;28;45300;-95
2022/10/08 07:06:48;;;;;;;;;0.00;0.00;;;;;;;;5002210;28;47023;-95
2022/10/08 07:09:13;;;;;;;;;0.00;0.00;;;;;;;;4998463;28;45951;-95
2022/10/08 07:11:38;;;;;;;;;0.00;0.00;;;;;;;;5012881;28;45328;-94
2022/10/08 07:14:03;;;;;;;;;0.00;0.00;;;;;;;;5002222;28;45576;-95
2022/10/08 07:16:29;;;;;;;;;0.00;0.00;;;;;;;;4979365;28;48024;-94
2022/10/08 07:18:55;;;;;;;;;0.00;0.00;;;;;;;;4981865;28;45683;-92
2022/10/08 07:21:21;;;;;;;;;0.00;0.00;;;;;;;;4998668;28;45497;-95
2022/10/08 07:23:47;;;;;;;;;0.00;0.00;;;;;;;;4998880;28;45457;-94
2022/10/08 07:26:16;;;;;;;;;0.00;0.00;;;;;;;;4998656;28;46992;-94
2022/10/08 07:28:43;;;;;;;;;0.00;0.00;;;;;;;;4998813;28;45705;-94
2022/10/08 07:31:12;;;;;;;;;0.00;0.00;;;;;;;;4982899;28;45628;-94
2022/10/08 07:33:39;;;;;;;;;0.00;0.00;;;;;;;;4980916;28;45531;-93
2022/10/08 07:36:05;;;;;;;;;0.00;0.00;;;;;;;;4980927;28;46159;-93
2022/10/08 07:38:31;;;;;;;;;0.00;0.00;;;;;;;;4981939;28;45845;-94
2022/10/08 07:40:56;;;;;;;;;0.00;0.00;;;;;;;;4981641;28;45317;-94
2022/10/08 07:43:21;;;;;;;;;0.00;0.00;;;;;;;;4994133;28;45392;-93
2022/10/08 07:45:46;;;;;;;;;0.00;0.00;;;;;;;;4981096;28;48056;-93
2022/10/08 07:48:11;;;;;;;;;0.00;0.00;;;;;;;;4980970;28;45791;-94
2022/10/08 07:50:37;;;;;;;;;0.00;0.00;;;;;;;;4981972;28;45317;-93
2022/10/08 07:53:02;;;;;;;;;0.00;0.00;;;;;;;;4981631;28;45337;-92
2022/10/08 07:55:28;;;;;;;;;0.00;0.00;;;;;;;;4982213;28;47266;-94
2022/10/08 07:57:53;;;;;;;;;0.00;0.00;;;;;;;;4986938;28;45310;-94
2022/10/08 08:00:18;;;;;;;;;0.00;0.00;;;;;;;;4987366;28;45317;-94
2022/10/08 08:02:46;;;;;;;;;0.00;0.00;;;;;;;;4986387;28;45547;-93
2022/10/08 08:05:11;;;;;;;;;0.00;0.00;;;;;;;;4986702;28;47233;-94
2022/10/08 08:07:36;;;;;;;;;0.00;0.00;;;;;;;;4987101;28;45411;-95
2022/10/08 08:10:01;;;;;;;;;0.00;0.00;;;;;;;;4987385;28;45368;-94
2022/10/08 08:12:27;;;;;;;;;0.00;0.00;;;;;;;;4987039;28;45284;-94
2022/10/08 08:14:52;;;;;;;;;0.00;0.00;;;;;;;;4999717;28;46953;-94
2022/10/08 08:17:17;;;;;;;;;0.00;0.00;;;;;;;;4999316;28;45411;-93
2022/10/08 08:19:42;;;;;;;;;0.00;0.00;;;;;;;;4998446;28;45278;-93
2022/10/08 08:22:07;;;;;;;;;0.00;0.00;;;;;;;;4998191;28;45454;-94
2022/10/08 08:24:33;;;;;;;;;0.00;0.00;;;;;;;;5000808;28;47605;-93
2022/10/08 08:26:58;;;;;;;;;0.00;0.00;;;;;;;;5000958;28;45451;-93
2022/10/08 08:29:23;;;;;;;;;0.00;0.00;;;;;;;;5000244;28;45442;-94
2022/10/08 08:31:49;;;;;;;;;0.00;0.00;;;;;;;;4981232;28;45335;-93
2022/10/08 08:34:15;;;;;;;;;0.00;0.00;;;;;;;;4981831;28;47312;-93
2022/10/08 08:36:41;;;;;;;;;0.00;0.00;;;;;;;;4981246;28;45744;-95
2022/10/08 08:39:08;;;;;;;;;0.00;0.00;;;;;;;;4998861;28;45372;-92
2022/10/08 08:41:39;;;;;;;;;0.00;0.00;;;;;;;;4981007;28;45487;-93
2022/10/08 08:44:07;;;;;;;;;0.00;0.00;;;;;;;;4982162;28;47080;-93
2022/10/08 08:46:35;;;;;;;;;0.00;0.00;;;;;;;;4981310;28;45454;-93
2022/10/08 08:49:04;;;;;;;;;0.00;0.00;;;;;;;;4998925;28;45406;-93
2022/10/08 08:51:30;;;;;;;;;0.00;0.00;;;;;;;;4980965;28;45493;-94
2022/10/08 08:53:56;;;;;;;;;0.00;0.00;;;;;;;;4981360;28;47825;-93
2022/10/08 08:56:23;;;;;;;;;0.00;0.00;;;;;;;;4980923;28;45802;-93
2022/10/08 08:59:08;;;;;;;;;0.00;0.00;;;;;;;;4982245;28;45443;-93
2022/10/08 09:01:41;;;;;;;;;0.00;0.00;;;;;;;;4968086;28;45465;-92
2022/10/08 09:04:12;;;;;;;;;0.00;0.00;;;;;;;;4998892;28;46667;-92
2022/10/08 09:06:38;;;;;;;;;0.00;0.00;;;;;;;;4983039;28;45387;-93
2022/10/08 09:09:15;;;;;;;;;0.00;0.00;;;;;;;;4997423;28;45400;-93
2022/10/08 09:11:42;;;;;;;;;0.00;0.00;;;;;;;;5000505;28;45502;-93
2022/10/08 09:14:14;;;;;;;;;0.00;0.00;;;;;;;;5000668;28;47358;-92
2022/10/08 09:16:39;;;;;;;;;0.00;0.00;;;;;;;;5000354;28;45258;-93
2022/10/08 09:19:04;;;;;;;;;0.00;0.00;;;;;;;;5000490;28;45522;-92
2022/10/08 09:21:31;;;;;;;;;0.00;0.00;;;;;;;;5019135;28;45719;-93
2022/10/08 09:23:56;;;;;;;;;0.00;0.00;;;;;;;;5017594;28;48399;-92
2022/10/08 09:26:22;;;;;;;;;0.00;0.00;;;;;;;;5017456;28;45826;-92
2022/10/08 09:28:49;;;;;;;;;0.00;0.00;;;;;;;;5021080;28;45784;-93
2022/10/08 09:31:21;;;;;;;;;0.00;0.00;;;;;;;;5008250;28;45628;-93
2022/10/08 09:33:57;;;;;;;;;0.00;0.00;;;;;;;;5006100;28;47528;-95
2022/10/08 09:36:40;;;;;;;;;0.00;0.00;;;;;;;;5020795;28;45328;-90
2022/10/08 09:39:20;;;;;;;;;0.00;0.00;;;;;;;;4992175;28;45254;-92
2022/10/08 09:41:46;;;;;;;;;0.00;0.00;;;;;;;;5014385;28;45445;-93
2022/10/08 09:49:33;;;;;;;;;0.00;0.00;;;;;;;;5252344;22;45240;-96
2022/10/08 09:59:40;;;;;;;;;0.00;0.00;;;;;;;;5971227;22;46402;-96
2022/10/08 10:02:22;;;;;;;;;0.00;0.00;;;;;;;;4983889;28;45670;-96
2022/10/08 10:04:51;;;;;;;;;0.00;0.00;;;;;;;;4999469;28;45666;-95
2022/10/08 10:07:17;;;;;;;;;0.00;0.00;;;;;;;;4981354;28;45385;-96
2022/10/08 10:09:48;;;;;;;;;0.00;0.00;;;;;;;;5104520;22;45928;-96
2022/10/08 10:12:28;;;;;;;;;0.00;0.00;;;;;;;;4967390;28;45523;-93
2022/10/08 10:15:16;;;;;;;;;0.00;0.00;;;;;;;;4959269;28;48330;-94
2022/10/08 10:17:44;;;;;;;;;0.00;0.00;;;;;;;;4956281;28;44880;-94
2022/10/08 10:20:19;;;;;;;;;0.00;0.00;;;;;;;;4953478;28;45670;-95
2022/10/08 10:22:47;;;;;;;;;0.00;0.00;;;;;;;;4970936;28;45279;-94
2022/10/08 10:25:17;;;;;;;;;0.00;0.00;;;;;;;;4958215;28;48349;-95
2022/10/08 10:27:44;;;;;;;;;0.00;0.00;;;;;;;;4964381;28;45451;-94
2022/10/08 10:30:18;;;;;;;;;0.00;0.00;;;;;;;;4949156;28;45290;-93
2022/10/08 10:32:47;;;;;;;;;0.00;0.00;;;;;;;;4945706;28;45187;-90
2022/10/08 10:35:33;;;;;;;;;0.00;0.00;;;;;;;;4977387;28;47245;-94
2022/10/08 10:38:16;;;;;;;;;0.00;0.00;;;;;;;;4944769;28;45732;-96
2022/10/08 10:43:36;;;;;;;;;0.00;0.00;;;;;;;;6102235;23;45988;-96
2022/10/08 10:46:48;;;;;;;;;;;;;;;;;;;;;
2022/10/08 10:49:19;;;;;;;;;0.00;0.00;;;;;;;;4951792;28;45576;-96
2022/10/08 10:52:20;;;;;;;;;0.00;0.00;;;;;;;;4932588;28;45288;-87
2022/10/08 10:55:00;;;;;;;;;0.00;0.00;;;;;;;;4872508;29;45642;-89
2022/10/08 10:57:26;;;;;;;;;0.00;0.00;;;;;;;;4882230;29;45554;-90
2022/10/08 11:00:05;;;;;;;;;0.00;0.00;;;;;;;;4885892;29;45357;-93
2022/10/08 11:02:41;;;;;;;;;0.00;0.00;;;;;;;;4871091;29;45374;-94
2022/10/08 11:05:15;;;;;;;;;0.00;0.00;;;;;;;;4854784;29;45772;-95
2022/10/08 11:08:17;;;;;;;;;0.00;0.00;;;;;;;;5078640;23;47501;-96
2022/10/08 11:10:54;;;;;;;;;0.00;0.00;;;;;;;;5018490;28;45146;-96
2022/10/08 11:13:39;;;;;;;;;0.00;0.00;;;;;;;;5101992;22;45360;-96
2022/10/08 11:16:23;;;;;;;;;0.00;0.00;;;;;;;;5140939;22;45712;-96
2022/10/08 11:18:51;;;;;;;;;0.00;0.00;;;;;;;;4976906;28;47086;-94
2022/10/08 11:21:37;;;;;;;;;0.00;0.00;;;;;;;;4977681;28;45979;-94
2022/10/08 11:24:02;;;;;;;;;0.00;0.00;;;;;;;;5116615;23;45488;-95
2022/10/08 11:26:46;;;;;;;;;0.00;0.00;;;;;;;;4984805;28;45529;-96
2022/10/08 11:29:18;;;;;;;;;0.00;0.00;;;;;;;;5012835;28;45668;-96
2022/10/08 11:31:45;;;;;;;;;0.00;0.00;;;;;;;;4994792;28;45540;-95
2022/10/08 11:34:28;;;;;;;;;0.00;0.00;;;;;;;;4992351;28;45325;-96
2022/10/08 11:36:53;;;;;;;;;0.00;0.00;;;;;;;;5006620;28;45596;-96
2022/10/08 11:39:20;;;;;;;;;0.00;0.00;;;;;;;;4991519;28;47651;-96
2022/10/08 11:41:56;;;;;;;;;0.00;0.00;;;;;;;;4982935;28;45643;-95
2022/10/08 11:44:22;;;;;;;;;0.00;0.00;;;;;;;;5000051;28;45537;-94
2022/10/08 11:46:47;;;;;;;;;0.00;0.00;;;;;;;;4986702;28;45505;-96
2022/10/08 11:49:12;;;;;;;;;0.00;0.00;;;;;;;;4987517;28;48598;-96
2022/10/08 11:51:51;;;;;;;;;0.00;0.00;;;;;;;;4987682;28;45332;-95
2022/10/08 11:54:19;;;;;;;;;0.00;0.00;;;;;;;;4995149;28;45445;-96
2022/10/08 11:56:50;;;;;;;;;0.00;0.00;;;;;;;;4990657;28;45407;-96
2022/10/08 11:59:29;;;;;;;;;0.00;0.00;;;;;;;;4996776;28;47360;-96
2022/10/08 12:01:56;;;;;;;;;0.00;0.00;;;;;;;;4991213;28;45963;-93
2022/10/08 12:04:26;;;;;;;;;0.00;0.00;;;;;;;;4997871;28;45571;-96
2022/10/08 12:07:00;;;;;;;;;0.00;0.00;;;;;;;;4988083;28;45524;-96
2022/10/08 12:09:25;;;;;;;;;0.00;0.00;;;;;;;;4999198;28;47071;-96
2022/10/08 12:11:51;;;;;;;;;0.00;0.00;;;;;;;;5004900;28;45267;-95
2022/10/08 12:14:17;;;;;;;;;0.00;0.00;;;;;;;;5006220;28;44799;-96
2022/10/08 12:16:54;;;;;;;;;0.00;0.00;;;;;;;;5010454;28;45562;-96
2022/10/08 12:19:35;;;;;;;;;0.00;0.00;;;;;;;;5001093;28;47081;-95
2022/10/08 12:22:24;;;;;;;;;0.00;0.00;;;;;;;;5000595;28;45893;-94
2022/10/08 12:24:56;;;;;;;;;0.00;0.00;;;;;;;;4998069;28;45384;-94
2022/10/08 12:27:36;;;;;;;;;0.00;0.00;;;;;;;;4997637;28;45311;-95
2022/10/08 12:30:05;;;;;;;;;0.00;0.00;;;;;;;;4992862;28;48291;-96
2022/10/08 12:32:32;;;;;;;;;0.00;0.00;;;;;;;;5007517;28;45425;-96
2022/10/08 12:34:58;;;;;;;;;0.00;0.00;;;;;;;;5017103;28;45396;-94
2022/10/08 12:37:37;;;;;;;;;0.00;0.00;;;;;;;;4998931;28;45394;-94
2022/10/08 12:40:11;;;;;;;;;0.00;0.00;;;;;;;;5017893;28;48544;-96
2022/10/08 12:42:38;;;;;;;;;0.00;0.00;;;;;;;;4995906;28;45324;-95
2022/10/08 12:45:07;;;;;;;;;0.00;0.00;;;;;;;;4991895;28;45497;-95
2022/10/08 12:47:32;;;;;;;;;0.00;0.00;;;;;;;;4997688;28;45444;-95
2022/10/08 12:50:03;;;;;;;;;0.00;0.00;;;;;;;;4989386;28;48337;-96
2022/10/08 12:52:33;;;;;;;;;0.00;0.00;;;;;;;;4993244;28;45373;-96
2022/10/08 12:55:00;;;;;;;;;0.00;0.00;;;;;;;;5000263;28;45212;-96
2022/10/08 12:57:32;;;;;;;;;0.00;0.00;;;;;;;;4990818;28;45503;-94
2022/10/08 12:59:58;;;;;;;;;0.00;0.00;;;;;;;;4986836;28;47308;-95
2022/10/08 13:02:23;;;;;;;;;0.00;0.00;;;;;;;;5008661;28;45378;-95
2022/10/08 13:04:49;;;;;;;;;0.00;0.00;;;;;;;;4987037;28;46177;-95
2022/10/08 13:07:22;;;;;;;;;0.00;0.00;;;;;;;;4992134;28;45418;-95
2022/10/08 13:09:52;;;;;;;;;0.00;0.00;;;;;;;;4992854;28;47150;-95
2022/10/08 13:12:17;;;;;;;;;0.00;0.00;;;;;;;;4990307;28;45896;-96
2022/10/08 13:14:42;;;;;;;;;0.00;0.00;;;;;;;;5000289;28;45467;-96
2022/10/08 13:17:25;;;;;;;;;0.00;0.00;;;;;;;;4988944;28;45453;-95
2022/10/08 13:20:01;;;;;;;;;0.00;0.00;;;;;;;;4983959;28;47223;-95
2022/10/08 13:22:26;;;;;;;;;0.00;0.00;;;;;;;;4994567;28;47035;-94
2022/10/08 13:24:51;;;;;;;;;0.00;0.00;;;;;;;;4989898;28;45689;-94
2022/10/08 13:27:22;;;;;;;;;0.00;0.00;;;;;;;;5004249;28;45402;-95
2022/10/08 13:29:47;;;;;;;;;0.00;0.00;;;;;;;;4990596;28;47363;-94
2022/10/08 13:32:12;;;;;;;;;0.00;0.00;;;;;;;;4991562;28;45241;-95
2022/10/08 13:34:38;;;;;;;;;0.00;0.00;;;;;;;;4985570;28;45330;-93
2022/10/08 13:37:04;;;;;;;;;0.00;0.00;;;;;;;;4986623;28;45860;-94
2022/10/08 13:39:32;;;;;;;;;0.00;0.00;;;;;;;;5007284;28;48627;-94
2022/10/08 13:41:58;;;;;;;;;0.00;0.00;;;;;;;;5004791;28;46631;-92
2022/10/08 13:44:24;;;;;;;;;0.00;0.00;;;;;;;;5000543;28;45331;-95
2022/10/08 13:46:49;;;;;;;;;0.00;0.00;;;;;;;;5000975;28;45513;-94
2022/10/08 13:49:25;;;;;;;;;0.00;0.00;;;;;;;;5007079;28;47185;-95
2022/10/08 13:51:51;;;;;;;;;0.00;0.00;;;;;;;;4999643;28;45621;-96
2022/10/08 13:54:26;;;;;;;;;0.00;0.00;;;;;;;;5001496;28;45550;-96
2022/10/08 13:57:01;;;;;;;;;0.00;0.00;;;;;;;;5003334;28;45557;-96
2022/10/08 13:59:27;;;;;;;;;0.00;0.00;;;;;;;;4993380;28;73018;-96
2022/10/08 14:01:52;;;;;;;;;0.00;0.00;;;;;;;;4990059;28;45407;-96
2022/10/08 14:04:18;;;;;;;;;0.00;0.00;;;;;;;;5014997;28;45418;-96
2022/10/08 14:06:46;;;;;;;;;0.00;0.00;;;;;;;;5002315;28;45585;-96
2022/10/08 14:09:13;;;;;;;;;0.00;0.00;;;;;;;;4995721;28;47094;-96
2022/10/08 14:11:41;;;;;;;;;0.00;0.00;;;;;;;;4987496;28;45568;-96
2022/10/08 14:14:09;;;;;;;;;0.00;0.00;;;;;;;;4997280;28;45315;-94
2022/10/08 14:16:34;;;;;;;;;0.00;0.00;;;;;;;;5005016;28;45351;-95
2022/10/08 14:19:02;;;;;;;;;0.00;0.00;;;;;;;;4981361;28;47284;-92
2022/10/08 14:21:28;;;;;;;;;0.00;0.00;;;;;;;;4998329;28;46013;-94
2022/10/08 14:23:53;;;;;;;;;0.00;0.00;;;;;;;;4998692;28;45581;-96
2022/10/08 14:26:18;;;;;;;;;0.00;0.00;;;;;;;;4996182;28;45492;-91
2022/10/08 14:28:43;;;;;;;;;0.00;0.00;;;;;;;;4988865;28;48092;-93
2022/10/08 14:31:10;;;;;;;;;0.00;0.00;;;;;;;;4998109;28;45530;-91
2022/10/08 14:33:35;;;;;;;;;0.00;0.00;;;;;;;;5012623;28;45048;-92
2022/10/08 14:36:01;;;;;;;;;0.00;0.00;;;;;;;;5024303;28;45493;-93
2022/10/08 14:38:31;;;;;;;;;0.00;0.00;;;;;;;;5001318;28;46973;-95
2022/10/08 14:40:56;;;;;;;;;0.00;0.00;;;;;;;;5012913;28;45281;-92
2022/10/08 14:43:21;;;;;;;;;0.00;0.00;;;;;;;;5010341;28;45236;-94
2022/10/08 14:45:47;;;;;;;;;0.00;0.00;;;;;;;;5013744;28;45465;-91
2022/10/08 14:48:12;;;;;;;;;0.00;0.00;;;;;;;;4985794;28;47875;-93
2022/10/08 14:50:37;;;;;;;;;0.00;0.00;;;;;;;;4996425;28;45501;-94
2022/10/08 14:53:02;;;;;;;;;0.00;0.00;;;;;;;;4993725;28;45287;-94
2022/10/08 14:55:28;;;;;;;;;0.00;0.00;;;;;;;;5004024;28;45567;-96
2022/10/08 14:57:57;;;;;;;;;0.00;0.00;;;;;;;;5021749;28;48123;-96
2022/10/08 15:00:22;;;;;;;;;0.00;0.00;;;;;;;;5035927;28;44771;-95
2022/10/08 15:02:48;;;;;;;;;0.00;0.00;;;;;;;;5016819;28;44815;-96
2022/10/08 15:05:13;;;;;;;;;0.00;0.00;;;;;;;;5014672;28;45518;-95
2022/10/08 15:07:38;;;;;;;;;0.00;0.00;;;;;;;;5004187;28;47219;-96
2022/10/08 15:10:04;;;;;;;;;0.00;0.00;;;;;;;;5018104;28;45452;-96
2022/10/08 15:12:30;;;;;;;;;0.00;0.00;;;;;;;;5034074;28;44863;-96
2022/10/08 15:14:58;;;;;;;;;0.00;0.00;;;;;;;;5002066;28;45436;-96
2022/10/08 15:17:24;;;;;;;;;0.00;0.00;;;;;;;;5021687;28;47122;-96
2022/10/08 15:20:14;;;;;;;;;0.00;0.00;;;;;;;;5024817;28;45819;-96
2022/10/08 15:22:39;;;;;;;;;0.00;0.00;;;;;;;;4998901;28;45417;-94
2022/10/08 15:25:05;;;;;;;;;0.00;0.00;;;;;;;;5018127;28;44824;-96
2022/10/08 15:27:30;;;;;;;;;0.00;0.00;;;;;;;;5185200;23;47342;-96
2022/10/08 15:58:21;;;;;;;;;0.00;0.00;;;;;;;;5400430;23;46428;-96
2022/10/08 16:00:46;;;;;;;;;0.00;0.00;;;;;;;;5045271;28;45544;-96
2022/10/08 16:03:13;;;;;;;;;0.00;0.00;;;;;;;;5054603;28;45512;-96
2022/10/08 16:05:39;;;;;;;;;0.00;0.00;;;;;;;;5027215;28;45313;-96
2022/10/08 16:08:07;;;;;;;;;0.00;0.00;;;;;;;;5024148;28;45733;-94
2022/10/08 16:10:33;;;;;;;;;0.00;0.00;;;;;;;;5021387;28;45416;-93
2022/10/08 16:12:58;;;;;;;;;0.00;0.00;;;;;;;;5018711;28;45540;-94
2022/10/08 16:15:23;;;;;;;;;0.00;0.00;;;;;;;;5008535;28;45445;-92
2022/10/08 16:17:49;;;;;;;;;0.00;0.00;;;;;;;;5004801;28;46145;-94
2022/10/08 16:20:15;;;;;;;;;0.00;0.00;;;;;;;;5009971;28;45464;-95
2022/10/08 16:22:40;;;;;;;;;0.00;0.00;;;;;;;;5012471;28;45445;-95
2022/10/08 16:25:05;;;;;;;;;0.00;0.00;;;;;;;;5015449;28;45591;-96
2022/10/08 16:27:30;;;;;;;;;0.00;0.00;;;;;;;;5015868;28;47165;-95
2022/10/08 16:29:55;;;;;;;;;0.00;0.00;;;;;;;;5017021;28;45857;-94
2022/10/08 16:32:21;;;;;;;;;0.00;0.00;;;;;;;;5020516;28;45438;-96
2022/10/08 16:34:48;;;;;;;;;0.00;0.00;;;;;;;;5020460;28;45389;-95
2022/10/08 16:37:14;;;;;;;;;0.00;0.00;;;;;;;;5013405;28;47590;-96
2022/10/08 16:39:39;;;;;;;;;0.00;0.00;;;;;;;;5023688;28;44816;-94
2022/10/08 16:42:05;;;;;;;;;0.00;0.00;;;;;;;;5017324;28;45359;-95
2022/10/08 16:44:30;;;;;;;;;0.00;0.00;;;;;;;;5004726;28;45308;-94
2022/10/08 16:46:55;;;;;;;;;0.00;0.00;;;;;;;;5015727;28;48378;-95
2022/10/08 16:49:22;;;;;;;;;0.00;0.00;;;;;;;;5022236;28;45314;-92
2022/10/08 16:51:48;;;;;;;;;0.00;0.00;;;;;;;;5020798;28;45448;-93
2022/10/08 16:54:14;;;;;;;;;0.00;0.00;;;;;;;;5015896;28;45679;-95
2022/10/08 16:56:40;;;;;;;;;0.00;0.00;;;;;;;;5015130;28;47270;-96
2022/10/08 16:59:07;;;;;;;;;0.00;0.00;;;;;;;;5010403;28;45300;-94
2022/10/08 17:01:34;;;;;;;;;0.00;0.00;;;;;;;;5020526;28;45507;-96
2022/10/08 17:04:07;;;;;;;;;0.00;0.00;;;;;;;;5036108;28;45201;-96
2022/10/08 17:06:33;;;;;;;;;0.00;0.00;;;;;;;;5025720;28;48525;-96
2022/10/08 17:08:58;;;;;;;;;0.00;0.00;;;;;;;;5033036;28;45203;-96
2022/10/08 17:11:24;;;;;;;;;0.00;0.00;;;;;;;;5024315;28;45638;-96
2022/10/08 17:13:51;;;;;;;;;0.00;0.00;;;;;;;;5007366;28;45280;-96
2022/10/08 17:16:22;;;;;;;;;0.00;0.00;;;;;;;;5030037;28;48117;-96
2022/10/08 17:18:51;;;;;;;;;0.00;0.00;;;;;;;;5042283;28;45655;-96
2022/10/08 17:21:17;;;;;;;;;0.00;0.00;;;;;;;;5031958;28;45458;-96
2022/10/08 17:23:42;;;;;;;;;0.00;0.00;;;;;;;;5017292;28;45447;-91
2022/10/08 17:26:08;;;;;;;;;0.00;0.00;;;;;;;;5023058;28;46995;-95
2022/10/08 17:28:35;;;;;;;;;0.00;0.00;;;;;;;;5019126;28;45450;-90
2022/10/08 17:31:01;;;;;;;;;0.00;0.00;;;;;;;;5034479;28;45508;-94
2022/10/08 17:33:27;;;;;;;;;0.00;0.00;;;;;;;;5011244;28;45303;-91
2022/10/08 17:36:00;;;;;;;;;0.00;0.00;;;;;;;;5006588;28;47082;-89
2022/10/08 17:38:25;;;;;;;;;0.00;0.00;;;;;;;;5014579;28;45764;-90
2022/10/08 17:40:50;;;;;;;;;0.00;0.00;;;;;;;;5019675;28;45596;-92
2022/10/08 17:43:15;;;;;;;;;0.00;0.00;;;;;;;;5017277;28;45390;-93
2022/10/08 17:45:40;;;;;;;;;0.00;0.00;;;;;;;;5009724;28;48038;-89
2022/10/08 17:48:05;;;;;;;;;0.00;0.00;;;;;;;;5031406;28;45346;-90
2022/10/08 17:50:33;;;;;;;;;0.00;0.00;;;;;;;;5021848;28;45772;-91
2022/10/08 17:52:58;;;;;;;;;0.00;0.00;;;;;;;;5021070;28;45568;-90
2022/10/08 17:55:23;;;;;;;;;0.00;0.00;;;;;;;;5015974;28;46362;-89
2022/10/08 17:57:49;;;;;;;;;0.00;0.00;;;;;;;;5021564;28;45953;-90
2022/10/08 18:00:14;;;;;;;;;0.00;0.00;;;;;;;;5024684;28;46495;-91
2022/10/08 18:02:39;;;;;;;;;0.00;0.00;;;;;;;;5003863;28;46227;-91
2022/10/08 18:05:04;;;;;;;;;0.00;0.00;;;;;;;;5006548;28;47166;-92
2022/10/08 18:07:31;;;;;;;;;0.00;0.00;;;;;;;;5020220;28;45369;-91
2022/10/08 18:09:56;;;;;;;;;0.00;0.00;;;;;;;;5002678;28;45316;-91
2022/10/08 18:12:22;;;;;;;;;0.00;0.00;;;;;;;;5004222;28;46671;-90
2022/10/08 18:14:47;;;;;;;;;0.00;0.00;;;;;;;;5010193;28;48372;-90
2022/10/08 18:17:12;;;;;;;;;0.00;0.00;;;;;;;;5030301;28;45438;-91
2022/10/08 18:19:37;;;;;;;;;0.00;0.00;;;;;;;;5005421;28;46040;-90
2022/10/08 18:22:02;;;;;;;;;0.00;0.00;;;;;;;;5008338;28;45691;-90
2022/10/08 18:24:28;;;;;;;;;0.00;0.00;;;;;;;;5021713;28;45571;-90
2022/10/08 18:26:53;;;;;;;;;0.00;0.00;;;;;;;;5021306;28;45445;-91
2022/10/08 18:29:18;;;;;;;;;0.00;0.00;;;;;;;;5027314;28;45437;-92
2022/10/08 18:31:45;;;;;;;;;0.00;0.00;;;;;;;;5030253;28;45543;-92
2022/10/08 18:34:12;;;;;;;;;0.00;0.00;;;;;;;;5021603;28;45431;-91
2022/10/08 18:36:37;;;;;;;;;0.00;0.00;;;;;;;;5008616;28;46039;-91
2022/10/08 18:39:09;;;;;;;;;0.00;0.00;;;;;;;;5015904;28;45379;-93
2022/10/08 18:41:37;;;;;;;;;0.00;0.00;;;;;;;;5020877;28;45831;-92
2022/10/08 18:44:04;;;;;;;;;0.00;0.00;;;;;;;;5027776;28;45796;-91
2022/10/08 18:46:30;;;;;;;;;0.00;0.00;;;;;;;;5010221;28;45653;-93
2022/10/08 18:48:55;;;;;;;;;0.00;0.00;;;;;;;;5020236;28;45418;-92
2022/10/08 18:51:21;;;;;;;;;0.00;0.00;;;;;;;;5003430;28;45657;-91
2022/10/08 18:53:47;;;;;;;;;0.00;0.00;;;;;;;;5026678;28;45497;-90
2022/10/08 18:56:14;;;;;;;;;0.00;0.00;;;;;;;;5014531;28;45529;-89
2022/10/08 18:58:39;;;;;;;;;0.00;0.00;;;;;;;;5002105;28;45505;-90
2022/10/08 19:01:05;;;;;;;;;0.00;0.00;;;;;;;;5004608;28;45474;-89
2022/10/08 19:03:30;;;;;;;;;0.00;0.00;;;;;;;;5007860;28;47847;-91
2022/10/08 19:05:55;;;;;;;;;0.00;0.00;;;;;;;;5025304;28;45406;-90
2022/10/08 19:08:21;;;;;;;;;0.00;0.00;;;;;;;;5012978;28;45447;-91
2022/10/08 19:10:46;;;;;;;;;0.00;0.00;;;;;;;;5015971;28;45394;-91
2022/10/08 19:13:12;;;;;;;;;0.00;0.00;;;;;;;;5018851;28;45370;-91
2022/10/08 19:15:37;;;;;;;;;0.00;0.00;;;;;;;;5011008;28;45678;-91
2022/10/08 19:18:03;;;;;;;;;0.00;0.00;;;;;;;;5006486;28;45575;-91
2022/10/08 19:20:28;;;;;;;;;0.00;0.00;;;;;;;;5006119;28;45309;-89
2022/10/08 19:22:54;;;;;;;;;0.00;0.00;;;;;;;;5026555;28;46768;-91
2022/10/08 19:25:19;;;;;;;;;0.00;0.00;;;;;;;;5013243;28;45423;-90
2022/10/08 19:27:45;;;;;;;;;0.00;0.00;;;;;;;;5011881;28;45379;-91
2022/10/08 19:30:11;;;;;;;;;0.00;0.00;;;;;;;;5021219;28;45303;-90
2022/10/08 19:32:36;;;;;;;;;0.00;0.00;;;;;;;;5025053;28;47001;-90
2022/10/08 19:35:01;;;;;;;;;0.00;0.00;;;;;;;;5015063;28;45372;-89
2022/10/08 19:37:26;;;;;;;;;0.00;0.00;;;;;;;;5001354;28;45358;-90
2022/10/08 19:39:52;;;;;;;;;0.00;0.00;;;;;;;;5018659;28;45479;-90
2022/10/08 19:42:17;;;;;;;;;0.00;0.00;;;;;;;;5008183;28;47168;-91
2022/10/08 19:44:42;;;;;;;;;0.00;0.00;;;;;;;;5013315;28;45439;-91
2022/10/08 19:47:07;;;;;;;;;0.00;0.00;;;;;;;;5007439;28;46254;-90
2022/10/08 19:49:32;;;;;;;;;0.00;0.00;;;;;;;;5031673;28;45496;-90
